createdAt,value
2022-10-09T00:02:03.993Z,75.61
2022-10-09T00:04:25.455Z,75.71
2022-10-09T00:06:46.917Z,75.83
2022-10-09T00:09:08.400Z,75.82
2022-10-09T00:11:31.867Z,76.38
2022-10-09T00:13:55.367Z,76.71
2022-10-09T00:16:18.280Z,77.01
2022-10-09T00:18:40.203Z,77.68
2022-10-09T00:21:01.768Z,78.27
2022-10-09T00:23:23.256Z,77.47
2022-10-09T00:25:56.898Z,77.88
2022-10-09T00:28:18.636Z,77.28
2022-10-09T00:30:40.211Z,76.88
2022-10-09T00:33:01.699Z,77.00
2022-10-09T00:35:23.296Z,78.41
2022-10-09T00:37:44.762Z,78.44
2022-10-09T00:40:06.622Z,77.85
2022-10-09T00:42:28.118Z,77.33
2022-10-09T00:45:00.036Z,77.28
2022-10-09T00:47:27.513Z,78.60
2022-10-09T00:49:50.432Z,77.34
2022-10-09T00:52:12.201Z,77.33
2022-10-09T00:54:38.344Z,77.54
2022-10-09T00:57:00.274Z,77.30
2022-10-09T00:59:22.096Z,77.86
2022-10-09T01:01:44.444Z,77.28
2022-10-09T01:04:06.022Z,77.16
2022-10-09T01:06:55.338Z,76.99
2022-10-09T01:09:25.441Z,76.88
2022-10-09T01:11:50.189Z,76.90
2022-10-09T01:14:24.959Z,77.14
2022-10-09T01:16:59.396Z,78.01
2022-10-09T01:19:50.099Z,77.47
2022-10-09T01:22:23.687Z,77.35
2022-10-09T01:24:55.531Z,76.31
2022-10-09T01:27:22.111Z,76.44
2022-10-09T01:29:51.983Z,75.71
2022-10-09T01:32:18.723Z,76.40
2022-10-09T01:34:42.006Z,76.01
2022-10-09T01:37:04.227Z,76.75
2022-10-09T01:39:27.347Z,77.68
2022-10-09T01:41:52.134Z,77.14
2022-10-09T01:44:22.711Z,77.29
2022-10-09T01:46:44.481Z,77.36
2022-10-09T01:49:12.543Z,77.96
2022-10-09T01:51:43.908Z,78.34
2022-10-09T01:54:08.545Z,78.24
2022-10-09T01:56:32.040Z,78.47
2022-10-09T01:58:58.061Z,79.39
2022-10-09T02:01:31.309Z,79.90
2022-10-09T02:03:55.086Z,78.63
2022-10-09T02:06:19.134Z,79.31
2022-10-09T02:08:43.842Z,78.70
2022-10-09T02:11:06.663Z,78.90
2022-10-09T02:13:29.151Z,78.20
2022-10-09T02:16:05.020Z,78.90
2022-10-09T02:18:36.711Z,78.98
2022-10-09T02:21:07.854Z,78.87
2022-10-09T02:23:29.796Z,79.37
2022-10-09T02:25:53.049Z,79.95
2022-10-09T02:28:14.842Z,79.60
2022-10-09T02:30:48.565Z,80.83
2022-10-09T02:33:10.034Z,79.88
2022-10-09T02:35:31.826Z,79.31
2022-10-09T02:37:53.279Z,78.90
2022-10-09T02:40:15.363Z,78.22
2022-10-09T02:42:36.807Z,78.22
2022-10-09T02:44:58.267Z,77.95
2022-10-09T02:47:19.740Z,77.69
2022-10-09T02:49:41.198Z,78.15
2022-10-09T02:52:02.652Z,78.02
2022-10-09T02:54:24.159Z,79.32
2022-10-09T02:56:45.644Z,78.48
2022-10-09T02:59:07.457Z,78.84
2022-10-09T03:01:29.061Z,78.71
2022-10-09T03:03:51.014Z,78.23
2022-10-09T03:06:15.204Z,77.94
2022-10-09T03:08:39.467Z,77.71
2022-10-09T03:11:00.989Z,78.27
2022-10-09T03:13:22.560Z,79.80
2022-10-09T03:15:44.102Z,78.99
2022-10-09T03:18:05.636Z,78.10
2022-10-09T03:20:27.547Z,77.90
2022-10-09T03:22:49.175Z,77.48
2022-10-09T03:25:10.841Z,77.98
2022-10-09T03:27:32.319Z,79.20
2022-10-09T03:29:53.804Z,78.60
2022-10-09T03:32:15.348Z,78.16
2022-10-09T03:34:36.869Z,78.13
2022-10-09T03:36:58.381Z,78.19
2022-10-09T03:39:19.906Z,78.61
2022-10-09T03:41:41.385Z,78.15
2022-10-09T03:44:02.883Z,78.17
2022-10-09T03:46:24.369Z,77.77
2022-10-09T03:48:45.957Z,78.05
2022-10-09T03:51:07.719Z,78.99
2022-10-09T03:53:29.445Z,79.54
2022-10-09T03:55:50.911Z,79.15
2022-10-09T03:58:12.376Z,78.85
2022-10-09T04:00:34.906Z,78.41
2022-10-09T04:02:56.497Z,78.29
2022-10-09T04:05:18.119Z,77.87
2022-10-09T04:07:39.617Z,77.70
2022-10-09T04:10:01.289Z,78.05
2022-10-09T04:12:22.728Z,79.69
2022-10-09T04:14:44.207Z,79.42
2022-10-09T04:17:05.682Z,78.96
2022-10-09T04:19:27.174Z,78.71
2022-10-09T04:21:49.089Z,77.98
2022-10-09T04:24:10.599Z,78.70
2022-10-09T04:26:32.059Z,80.11
2022-10-09T04:28:53.527Z,79.83
2022-10-09T04:31:15.055Z,79.70
2022-10-09T04:33:36.580Z,79.47
2022-10-09T04:35:58.104Z,78.66
2022-10-09T04:38:20.328Z,78.67
2022-10-09T04:40:42.028Z,79.15
2022-10-09T04:43:03.651Z,79.08
2022-10-09T04:45:25.162Z,78.90
2022-10-09T04:47:46.656Z,78.77
2022-10-09T04:50:08.638Z,78.03
2022-10-09T04:52:30.075Z,78.18
2022-10-09T04:54:51.585Z,79.80
2022-10-09T04:57:13.065Z,79.48
2022-10-09T04:59:34.534Z,80.02
2022-10-09T05:01:56.040Z,79.76
2022-10-09T05:04:17.601Z,79.77
2022-10-09T05:06:39.072Z,79.40
2022-10-09T05:09:00.543Z,79.89
2022-10-09T05:11:24.981Z,79.06
2022-10-09T05:13:49.502Z,79.16
2022-10-09T05:16:14.011Z,79.28
2022-10-09T05:18:36.382Z,78.86
2022-10-09T05:20:57.858Z,79.42
2022-10-09T05:23:19.303Z,79.75
2022-10-09T05:25:40.754Z,79.78
2022-10-09T05:28:02.624Z,80.49
2022-10-09T05:30:24.209Z,80.30
2022-10-09T05:32:45.820Z,79.33
2022-10-09T05:35:08.070Z,80.38
2022-10-09T05:37:29.543Z,80.45
2022-10-09T05:39:51.011Z,79.73
2022-10-09T05:42:12.469Z,79.95
2022-10-09T05:44:33.988Z,80.85
2022-10-09T05:46:55.464Z,80.73
2022-10-09T05:49:16.966Z,79.97
2022-10-09T05:51:40.012Z,79.87
2022-10-09T05:54:04.299Z,79.94
2022-10-09T05:56:28.708Z,79.87
2022-10-09T05:58:56.114Z,79.65
2022-10-09T06:01:18.343Z,81.12
2022-10-09T06:03:39.913Z,81.00
2022-10-09T06:06:03.004Z,80.42
2022-10-09T06:08:24.475Z,79.92
2022-10-09T06:10:45.932Z,79.05
2022-10-09T06:13:07.405Z,79.01
2022-10-09T06:15:28.861Z,79.02
2022-10-09T06:17:50.344Z,79.06
2022-10-09T06:20:11.803Z,78.94
2022-10-09T06:22:33.398Z,78.71
2022-10-09T06:24:54.856Z,79.33
2022-10-09T06:27:16.434Z,78.58
2022-10-09T06:29:37.911Z,79.00
2022-10-09T06:31:59.359Z,79.89
2022-10-09T06:34:20.878Z,79.44
2022-10-09T06:36:42.379Z,78.90
2022-10-09T06:39:06.859Z,79.25
2022-10-09T06:41:29.544Z,79.00
2022-10-09T06:43:56.434Z,78.73
2022-10-09T06:46:19.296Z,79.13
2022-10-09T06:48:40.989Z,79.33
2022-10-09T06:51:04.314Z,79.74
2022-10-09T06:53:25.827Z,79.66
2022-10-09T06:55:54.922Z,79.04
2022-10-09T06:58:16.406Z,79.26
2022-10-09T07:00:37.847Z,79.43
2022-10-09T07:02:59.449Z,78.82
2022-10-09T07:05:21.106Z,79.84
2022-10-09T07:07:42.929Z,79.15
2022-10-09T07:10:04.704Z,78.94
2022-10-09T07:12:26.227Z,79.58
2022-10-09T07:14:47.683Z,79.41
2022-10-09T07:17:09.337Z,79.20
2022-10-09T07:19:30.849Z,78.74
2022-10-09T07:21:53.117Z,79.11
2022-10-09T07:24:15.394Z,79.08
2022-10-09T07:26:40.639Z,78.64
2022-10-09T07:29:04.001Z,78.81
2022-10-09T07:31:25.941Z,79.03
2022-10-09T07:33:49.026Z,79.48
2022-10-09T07:36:11.379Z,79.30
2022-10-09T07:38:33.343Z,79.35
2022-10-09T07:40:55.330Z,79.99
2022-10-09T07:43:17.165Z,80.38
2022-10-09T07:45:38.629Z,80.39
2022-10-09T07:48:00.983Z,81.33
2022-10-09T07:50:22.425Z,82.63
2022-10-09T07:52:43.881Z,83.19
2022-10-09T07:55:05.658Z,83.51
2022-10-09T07:57:27.118Z,82.32
2022-10-09T07:59:48.877Z,83.07
2022-10-09T08:02:10.457Z,83.06
2022-10-09T08:04:31.999Z,83.28
2022-10-09T08:06:53.460Z,84.89
2022-10-09T08:09:14.971Z,84.87
2022-10-09T08:11:40.477Z,84.26
2022-10-09T08:14:02.181Z,86.79
2022-10-09T08:16:25.350Z,85.60
2022-10-09T08:18:47.609Z,87.97
2022-10-09T08:21:13.417Z,87.44
2022-10-09T08:23:35.239Z,87.52
2022-10-09T08:25:56.924Z,86.66
2022-10-09T08:28:18.488Z,87.15
2022-10-09T08:30:39.992Z,87.94
2022-10-09T08:33:01.450Z,87.61
2022-10-09T08:35:22.938Z,87.58
2022-10-09T08:37:44.682Z,88.80
2022-10-09T08:40:07.801Z,90.07
2022-10-09T08:43:05.915Z,88.27
2022-10-09T08:45:27.990Z,90.27
2022-10-09T08:47:59.231Z,91.31
2022-10-09T08:50:35.840Z,90.88
2022-10-09T08:53:13.829Z,92.16
2022-10-09T08:55:52.421Z,92.62
2022-10-09T08:58:20.068Z,93.08
2022-10-09T09:00:52.547Z,91.75
2022-10-09T09:03:22.834Z,93.38
2022-10-09T09:05:53.530Z,91.97
2022-10-09T09:08:33.773Z,91.51
2022-10-09T09:11:02.722Z,90.93
2022-10-09T09:13:41.022Z,90.71
2022-10-09T09:16:14.737Z,89.09
2022-10-09T09:18:50.109Z,89.28
2022-10-09T09:21:17.674Z,88.78
2022-10-09T09:23:45.127Z,86.58
2022-10-09T09:26:17.380Z,86.84
2022-10-09T09:28:39.920Z,86.00
2022-10-09T09:31:13.368Z,86.59
2022-10-09T09:33:44.835Z,84.46
2022-10-09T09:36:28.475Z,84.77
2022-10-09T09:39:26.076Z,83.31
2022-10-09T09:41:32.436Z,82.50
2022-10-09T09:43:53.896Z,83.46
2022-10-09T09:46:19.044Z,81.66
2022-10-09T09:48:43.460Z,81.59
2022-10-09T09:51:29.332Z,81.54
2022-10-09T09:53:57.937Z,82.24
2022-10-09T09:56:20.047Z,80.76
2022-10-09T09:58:50.445Z,79.82
2022-10-09T10:01:22.436Z,78.35
2022-10-09T10:03:49.979Z,76.95
2022-10-09T10:06:32.716Z,77.27
2022-10-09T10:09:14.371Z,75.68
2022-10-09T10:11:36.034Z,76.07
2022-10-09T10:13:58.064Z,74.40
2022-10-09T10:16:28.597Z,73.92
2022-10-09T10:18:50.929Z,73.14
2022-10-09T10:21:16.315Z,70.22
2022-10-09T10:23:52.817Z,69.51
2022-10-09T10:26:39.837Z,69.83
2022-10-09T10:29:09.761Z,70.48
2022-10-09T10:31:47.276Z,68.24
2022-10-09T10:34:30.979Z,66.55
2022-10-09T10:37:16.447Z,65.63
2022-10-09T10:39:51.007Z,67.13
2022-10-09T10:42:21.405Z,66.06
2022-10-09T10:44:56.975Z,63.00
2022-10-09T10:47:28.891Z,63.06
2022-10-09T10:49:50.585Z,62.60
2022-10-09T10:52:30.106Z,60.51
2022-10-09T10:54:59.951Z,62.53
2022-10-09T10:57:31.535Z,61.66
2022-10-09T11:00:03.876Z,61.36
2022-10-09T11:02:56.314Z,60.17
2022-10-09T11:05:28.036Z,58.86
2022-10-09T11:08:03.259Z,57.34
2022-10-09T11:11:06.662Z,58.85
2022-10-09T11:13:33.158Z,58.67
2022-10-09T11:16:06.019Z,57.02
2022-10-09T11:18:48.824Z,56.97
2022-10-09T11:21:29.190Z,55.48
2022-10-09T11:24:12.428Z,56.88
2022-10-09T11:26:39.604Z,55.45
2022-10-09T11:29:06.817Z,57.36
2022-10-09T11:31:35.449Z,56.98
2022-10-09T11:34:13.462Z,55.43
2022-10-09T11:36:44.486Z,55.62
2022-10-09T11:39:22.322Z,55.13
2022-10-09T11:41:47.463Z,53.42
2022-10-09T11:44:18.066Z,52.35
2022-10-09T11:47:09.549Z,54.47
2022-10-09T11:49:51.951Z,54.70
2022-10-09T11:52:26.405Z,52.16
2022-10-09T11:54:47.941Z,52.51
2022-10-09T11:57:14.353Z,50.65
2022-10-09T11:59:42.119Z,50.10
2022-10-09T12:02:15.711Z,49.75
2022-10-09T12:04:53.985Z,50.41
2022-10-09T12:07:27.888Z,50.32
2022-10-09T12:09:49.491Z,50.38
2022-10-09T12:12:17.025Z,50.99
2022-10-09T12:14:38.601Z,49.54
2022-10-09T12:17:01.295Z,48.70
2022-10-09T12:19:40.116Z,50.03
2022-10-09T12:22:06.485Z,49.13
2022-10-09T12:24:33.947Z,49.05
2022-10-09T12:26:59.911Z,48.89
2022-10-09T12:29:36.184Z,47.71
2022-10-09T12:32:03.848Z,48.36
2022-10-09T12:34:33.643Z,49.37
2022-10-09T12:37:12.526Z,49.07
2022-10-09T12:39:34.061Z,48.75
2022-10-09T12:41:57.603Z,47.44
2022-10-09T12:44:28.802Z,48.10
2022-10-09T12:46:51.214Z,47.85
2022-10-09T12:49:21.028Z,48.11
2022-10-09T12:51:53.808Z,46.34
2022-10-09T12:54:17.836Z,45.14
2022-10-09T12:56:39.604Z,45.44
2022-10-09T12:59:02.198Z,45.23
2022-10-09T13:01:24.538Z,45.04
2022-10-09T13:03:57.076Z,45.62
2022-10-09T13:06:21.328Z,45.74
2022-10-09T13:08:43.871Z,45.36
2022-10-09T13:11:17.855Z,44.37
2022-10-09T13:13:40.129Z,44.85
2022-10-09T13:16:06.399Z,44.07
2022-10-09T13:18:27.999Z,44.08
2022-10-09T13:20:59.171Z,44.58
2022-10-09T13:23:29.530Z,43.99
2022-10-09T13:25:52.042Z,44.38
2022-10-09T13:28:20.105Z,43.92
2022-10-09T13:30:41.656Z,44.10
2022-10-09T13:33:03.296Z,41.92
2022-10-09T13:35:24.860Z,42.05
2022-10-09T13:37:46.863Z,43.01
2022-10-09T13:40:15.689Z,42.74
2022-10-09T13:42:37.600Z,41.94
2022-10-09T13:44:59.125Z,42.98
2022-10-09T13:47:24.229Z,42.59
2022-10-09T13:49:46.064Z,42.04
2022-10-09T13:52:07.567Z,41.85
2022-10-09T13:54:29.046Z,42.61
2022-10-09T13:56:50.549Z,41.77
2022-10-09T13:59:12.205Z,40.90
2022-10-09T14:01:33.709Z,41.02
2022-10-09T14:03:55.697Z,42.16
2022-10-09T14:06:17.173Z,42.55
2022-10-09T14:08:38.699Z,42.88
2022-10-09T14:11:01.138Z,41.84
2022-10-09T14:13:22.679Z,41.06
2022-10-09T14:15:44.131Z,41.61
2022-10-09T14:18:05.650Z,42.05
2022-10-09T14:20:28.513Z,42.26
2022-10-09T14:22:50.329Z,41.74
2022-10-09T14:25:12.085Z,40.90
2022-10-09T14:30:00.037Z,41.49
2022-10-09T14:32:21.508Z,41.64
2022-10-09T14:34:43.025Z,42.04
2022-10-09T14:37:13.571Z,41.51
2022-10-09T14:39:43.427Z,40.96
2022-10-09T14:42:04.956Z,41.16
2022-10-09T14:44:26.488Z,42.02
2022-10-09T14:46:47.982Z,41.83
2022-10-09T14:49:13.761Z,41.70
2022-10-09T14:51:37.601Z,41.21
2022-10-09T14:53:59.209Z,42.20
2022-10-09T14:56:21.125Z,41.63
2022-10-09T14:58:42.913Z,41.60
2022-10-09T15:01:04.881Z,42.17
2022-10-09T15:03:27.539Z,41.27
2022-10-09T15:05:49.091Z,41.72
2022-10-09T15:08:10.567Z,41.39
2022-10-09T15:10:34.405Z,41.79
2022-10-09T15:12:55.883Z,41.14
2022-10-09T15:15:17.544Z,41.44
2022-10-09T15:17:39.088Z,41.30
2022-10-09T15:20:00.676Z,41.83
2022-10-09T15:22:22.123Z,40.55
2022-10-09T15:24:43.604Z,40.63
2022-10-09T15:27:05.571Z,40.20
2022-10-09T15:29:27.062Z,40.28
2022-10-09T15:31:50.123Z,40.68
2022-10-09T15:34:17.298Z,41.26
2022-10-09T15:36:44.333Z,42.10
2022-10-09T15:39:07.818Z,42.70
2022-10-09T15:41:31.537Z,42.36
2022-10-09T15:43:56.266Z,42.69
2022-10-09T15:46:17.952Z,42.42
2022-10-09T15:48:39.698Z,43.00
2022-10-09T15:51:06.306Z,42.99
2022-10-09T15:53:27.780Z,42.99
2022-10-09T15:55:52.495Z,42.75
2022-10-09T15:58:15.459Z,42.95
2022-10-09T16:00:38.834Z,43.20
2022-10-09T16:03:00.307Z,44.02
2022-10-09T16:05:21.764Z,44.50
2022-10-09T16:07:43.247Z,44.45
2022-10-09T16:10:05.037Z,44.38
2022-10-09T16:12:26.589Z,45.02
2022-10-09T16:14:48.057Z,45.10
2022-10-09T16:17:11.432Z,45.52
2022-10-09T16:19:33.123Z,45.08
2022-10-09T16:21:54.692Z,44.09
2022-10-09T16:24:16.966Z,45.16
2022-10-09T16:26:38.431Z,45.44
2022-10-09T16:29:00.638Z,46.23
2022-10-09T16:31:28.645Z,46.50
2022-10-09T16:33:50.581Z,47.24
2022-10-09T16:36:12.962Z,47.38
2022-10-09T16:38:34.488Z,48.31
2022-10-09T16:41:03.121Z,48.26
2022-10-09T16:43:24.765Z,49.14
2022-10-09T16:45:46.209Z,49.36
2022-10-09T16:48:08.080Z,49.54
2022-10-09T16:50:29.991Z,49.80
2022-10-09T16:52:51.452Z,50.83
2022-10-09T16:55:12.910Z,50.74
2022-10-09T16:57:34.408Z,51.55
2022-10-09T16:59:55.872Z,51.75
2022-10-09T17:02:17.401Z,52.45
2022-10-09T17:04:40.662Z,52.34
2022-10-09T17:07:02.231Z,53.18
2022-10-09T17:09:23.778Z,54.14
2022-10-09T17:11:45.755Z,54.17
2022-10-09T17:14:07.244Z,54.52
2022-10-09T17:16:34.268Z,54.47
2022-10-09T17:18:55.807Z,54.61
2022-10-09T17:21:18.431Z,54.70
2022-10-09T17:23:40.510Z,55.20
2022-10-09T17:26:14.018Z,55.09
2022-10-09T17:28:36.029Z,55.20
2022-10-09T17:30:57.571Z,55.42
2022-10-09T17:33:20.002Z,55.25
2022-10-09T17:35:41.707Z,55.33
2022-10-09T17:38:03.200Z,55.40
2022-10-09T17:40:24.676Z,55.21
2022-10-09T17:42:46.189Z,55.80
2022-10-09T17:45:08.581Z,56.40
2022-10-09T17:47:30.062Z,56.28
2022-10-09T17:49:51.520Z,56.30
2022-10-09T17:52:13.037Z,56.57
2022-10-09T17:54:34.511Z,56.75
2022-10-09T17:56:56.108Z,56.46
2022-10-09T17:59:17.602Z,57.79
2022-10-09T18:01:39.725Z,57.68
2022-10-09T18:04:01.302Z,58.03
2022-10-09T18:06:23.941Z,57.95
2022-10-09T18:08:45.669Z,58.41
2022-10-09T18:11:10.654Z,58.07
2022-10-09T18:13:32.121Z,58.26
2022-10-09T18:15:53.772Z,58.25
2022-10-09T18:18:15.597Z,59.18
2022-10-09T18:20:38.531Z,58.72
2022-10-09T18:23:00.028Z,58.99
2022-10-09T18:25:21.523Z,58.65
2022-10-09T18:27:42.984Z,59.48
2022-10-09T18:30:05.818Z,59.13
2022-10-09T18:32:27.461Z,60.80
2022-10-09T18:34:49.016Z,60.08
2022-10-09T18:37:10.525Z,60.00
2022-10-09T18:39:32.051Z,60.40
2022-10-09T18:41:55.246Z,60.96
2022-10-09T18:44:19.512Z,61.04
2022-10-09T18:46:44.239Z,62.01
2022-10-09T18:49:09.648Z,62.09
2022-10-09T18:51:31.908Z,63.27
2022-10-09T18:53:59.850Z,62.53
2022-10-09T18:56:22.466Z,62.96
2022-10-09T18:58:44.207Z,63.23
2022-10-09T19:01:07.673Z,63.78
2022-10-09T19:03:29.408Z,64.08
2022-10-09T19:05:50.945Z,63.34
2022-10-09T19:08:12.441Z,63.60
2022-10-09T19:10:33.996Z,63.44
2022-10-09T19:12:55.494Z,64.96
2022-10-09T19:15:17.010Z,63.89
2022-10-09T19:17:38.744Z,63.72
2022-10-09T19:20:00.370Z,64.23
2022-10-09T19:22:24.106Z,64.87
2022-10-09T19:24:45.816Z,64.15
2022-10-09T19:27:07.569Z,64.41
2022-10-09T19:29:29.183Z,64.42
2022-10-09T19:31:51.334Z,64.45
2022-10-09T19:34:12.916Z,64.31
2022-10-09T19:36:36.726Z,64.52
2022-10-09T19:38:58.197Z,65.12
2022-10-09T19:41:19.671Z,65.12
2022-10-09T19:43:42.242Z,65.27
2022-10-09T19:46:06.499Z,64.49
2022-10-09T19:48:29.144Z,64.45
2022-10-09T19:50:50.637Z,66.56
2022-10-09T19:53:13.584Z,66.14
2022-10-09T19:55:35.930Z,69.09
2022-10-09T19:57:57.982Z,67.02
2022-10-09T20:00:19.490Z,67.05
2022-10-09T20:02:40.955Z,66.24
2022-10-09T20:05:02.520Z,66.19
2022-10-09T20:07:24.031Z,66.05
2022-10-09T20:09:45.514Z,67.37
2022-10-09T20:12:08.122Z,67.04
2022-10-09T20:14:29.617Z,69.06
2022-10-09T20:16:51.169Z,69.08
2022-10-09T20:19:13.548Z,69.01
2022-10-09T20:21:35.393Z,68.31
2022-10-09T20:23:57.837Z,68.20
2022-10-09T20:26:21.159Z,68.04
2022-10-09T20:28:43.955Z,70.80
2022-10-09T20:31:07.943Z,69.28
2022-10-09T20:33:29.425Z,68.56
2022-10-09T20:35:51.304Z,69.49
2022-10-09T20:38:12.791Z,69.63
2022-10-09T20:40:34.365Z,70.88
2022-10-09T20:42:55.845Z,70.49
2022-10-09T20:45:17.728Z,72.00
2022-10-09T20:47:39.204Z,70.49
2022-10-09T20:50:00.671Z,72.15
2022-10-09T20:52:22.242Z,70.28
2022-10-09T20:54:43.760Z,70.38
2022-10-09T20:57:05.228Z,71.76
2022-10-09T20:59:26.805Z,70.22
2022-10-09T21:01:48.417Z,71.00
2022-10-09T21:04:11.199Z,70.51
2022-10-09T21:06:34.104Z,70.21
2022-10-09T21:08:56.257Z,70.24
2022-10-09T21:11:18.372Z,71.02
2022-10-09T21:13:40.632Z,69.76
2022-10-09T21:16:06.414Z,73.37
2022-10-09T21:18:27.902Z,72.23
2022-10-09T21:20:49.656Z,71.00
2022-10-09T21:23:12.943Z,71.48
2022-10-09T21:25:34.481Z,72.08
2022-10-09T21:27:55.965Z,71.13
2022-10-09T21:30:17.558Z,71.29
2022-10-09T21:32:39.038Z,70.63
2022-10-09T21:35:00.519Z,73.25
2022-10-09T21:37:22.527Z,72.41
2022-10-09T21:39:44.238Z,72.01
2022-10-09T21:42:05.826Z,72.41
2022-10-09T21:44:27.693Z,73.11
2022-10-09T21:46:49.172Z,71.92
2022-10-09T21:49:20.665Z,72.93
2022-10-09T21:51:42.146Z,74.03
2022-10-09T21:54:03.683Z,73.17
2022-10-09T21:56:25.279Z,76.27
2022-10-09T21:58:49.051Z,74.23
2022-10-09T22:01:10.773Z,73.87
2022-10-09T22:03:35.240Z,74.37
2022-10-09T22:05:57.046Z,74.71
2022-10-09T22:08:18.552Z,74.09
2022-10-09T22:10:42.088Z,74.13
2022-10-09T22:13:03.572Z,74.95
2022-10-09T22:15:25.093Z,78.18
2022-10-09T22:17:46.561Z,78.83
2022-10-09T22:20:08.999Z,79.58
2022-10-09T22:22:30.482Z,79.84
2022-10-09T22:24:52.717Z,80.09
2022-10-09T22:27:14.233Z,81.35
2022-10-09T22:29:36.450Z,81.89
2022-10-09T22:31:57.910Z,83.55
2022-10-09T22:34:19.810Z,84.87
2022-10-09T22:36:41.314Z,86.17
2022-10-09T22:39:05.104Z,84.05
2022-10-09T22:41:28.169Z,81.51
2022-10-09T22:43:51.952Z,81.44
2022-10-09T22:46:16.904Z,80.18
2022-10-09T22:48:38.988Z,81.36
2022-10-09T22:51:06.036Z,79.78
2022-10-09T22:53:27.514Z,81.83
2022-10-09T22:55:48.953Z,81.67
2022-10-09T22:58:10.447Z,81.97
2022-10-09T23:00:32.079Z,82.34
2022-10-09T23:02:53.558Z,82.03
2022-10-09T23:05:15.058Z,81.53
2022-10-09T23:07:36.533Z,80.60
2022-10-09T23:09:58.089Z,80.27
2022-10-09T23:12:19.643Z,81.80
2022-10-09T23:14:41.094Z,82.24
2022-10-09T23:17:02.556Z,81.69
2022-10-09T23:19:24.039Z,80.22
2022-10-09T23:21:45.940Z,82.32
2022-10-09T23:24:09.512Z,80.31
2022-10-09T23:26:32.840Z,79.23
2022-10-09T23:29:04.382Z,78.51
2022-10-09T23:31:27.122Z,79.17
2022-10-09T23:33:49.146Z,78.61
2022-10-09T23:36:13.288Z,78.12
2022-10-09T23:38:34.964Z,79.80
2022-10-09T23:40:56.414Z,78.54
2022-10-09T23:43:18.151Z,77.75
2022-10-09T23:45:40.803Z,78.79
2022-10-09T23:48:02.244Z,78.04
2022-10-09T23:50:23.722Z,78.52
2022-10-09T23:52:45.174Z,78.33
2022-10-09T23:55:07.140Z,77.50
2022-10-09T23:57:28.691Z,77.62
2022-10-09T23:59:50.186Z,78.48
